Missoula International Airport Missoula US
ICAO: KMSO
IATA: MSO
Category: Medium
Scheduled Services: Yes

Elevation: 3206 ft
TransAlt. 18000 ft.

Airport Communications:
SPOKANE APP/DEP:124.9
ATIS:126.65
CTAF:118.4
GND:121.9
GREAT FALLS RDO:122.45
TWR:118.4
UNICOM:122.95

KMSO Zoom In..

Runways:

(A) RW 07 length 4612 ft width 75 ft
---- / hdg 72

(B) RW 11 length 9501 ft width 150 ft
ILS 109.30 / hdg 113

(C) RW 25 length 4612 ft width 75 ft
---- / hdg 252

(D) RW 29 length 9501 ft width 150 ft
---- / hdg 293

Location; KMSO
Day. 22 / Time. 03.53 Zulu
* Altimeter: 30.02
* Temperature: 01° c. 33.8°f.
* Wind from: 110° Speed 09 kn.
Dewpoint: -07° c.
Visibility: 10 Statute Miles.
Clouds: Broken 6500 ft.
Clouds: Overcast 9000 ft.

KMSO 220353Z 11009KT 10SM BKN065 OVC090 01/M07 A3002 RMK AO2 SLP193 T00111067


Wind From 110°
Speed 09 kn.

jpsM music video
CHECK IT OUT

jpsM - It Moves..

 
jpsmedia.com for Web Design  worldairports.se 2018   terms of use